Time,TemperatureF,DewpointF,PressureIn,WindDirection,WindDirectionDegrees,WindSpeedMPH,WindSpeedGustMPH,Humidity,HourlyPrecipIn,Conditions,Clouds,dailyrainin,SoftwareType,DateUTC
2013-02-08 00:03:00,69.3,58.7,29.91,South,177,2.6,7.2,69,0.00,,,0.00,WSDL version 420,2013-02-08 05:03:00,
2013-02-08 00:08:00,69.1,58.7,29.88,SSE,149,3.9,7.2,70,0.00,,,0.00,WSDL version 420,2013-02-08 05:08:00,
2013-02-08 00:13:00,69.0,58.9,29.88,South,174,2.6,6.9,70,0.00,,,0.00,WSDL version 420,2013-02-08 05:13:00,
2013-02-08 00:18:00,68.9,59.0,29.88,SSW,211,0.9,4.3,71,0.00,,,0.00,WSDL version 420,2013-02-08 05:18:00,
2013-02-08 00:23:00,68.8,59.0,29.88,South,186,2.0,4.0,71,0.00,,,0.00,WSDL version 420,2013-02-08 05:23:00,
2013-02-08 00:28:00,68.7,58.9,29.88,South,183,1.7,4.3,71,0.00,,,0.00,WSDL version 420,2013-02-08 05:28:00,
2013-02-08 00:33:00,68.5,58.8,29.88,SE,131,2.1,4.3,71,0.00,,,0.00,WSDL version 420,2013-02-08 05:33:00,
2013-02-08 00:38:00,68.4,58.8,29.88,SSE,163,2.4,3.6,72,0.00,,,0.00,WSDL version 420,2013-02-08 05:38:00,
2013-02-08 00:43:00,68.4,59.0,29.88,SW,218,0.7,3.6,72,0.00,,,0.00,WSDL version 420,2013-02-08 05:43:00,
2013-02-08 00:48:00,68.1,58.8,29.88,South,180,0.3,2.5,72,0.00,,,0.00,WSDL version 420,2013-02-08 05:48:00,
2013-02-08 00:53:00,67.9,58.7,29.88,SSW,203,1.9,2.2,73,0.00,,,0.00,WSDL version 420,2013-02-08 05:53:00,
2013-02-08 00:58:00,67.8,59.0,29.88,SW,225,0.0,2.9,74,0.00,,,0.00,WSDL version 420,2013-02-08 05:58:00,
2013-02-08 01:03:00,67.6,59.1,29.88,South,176,1.3,2.9,74,0.00,,,0.00,WSDL version 420,2013-02-08 06:03:00,
2013-02-08 01:08:00,67.6,59.3,29.88,South,183,1.4,2.5,75,0.00,,,0.00,WSDL version 420,2013-02-08 06:08:00,
2013-02-08 01:13:00,67.5,59.3,29.88,SSE,158,1.6,2.7,75,0.00,,,0.00,WSDL version 420,2013-02-08 06:13:00,
2013-02-08 01:18:00,67.5,59.5,29.88,SSE,154,0.9,3.6,76,0.00,,,0.00,WSDL version 420,2013-02-08 06:18:00,
2013-02-08 01:23:00,67.5,59.8,29.88,SSW,198,1.0,3.6,77,0.00,,,0.00,WSDL version 420,2013-02-08 06:23:00,
2013-02-08 01:28:00,67.5,60.0,29.88,NNE,23,0.6,2.7,77,0.00,,,0.00,WSDL version 420,2013-02-08 06:28:00,
2013-02-08 01:33:00,67.5,60.0,29.88,South,180,1.0,2.9,77,0.00,,,0.00,WSDL version 420,2013-02-08 06:33:00,
2013-02-08 01:38:00,67.5,60.1,29.88,South,180,1.2,3.4,78,0.00,,,0.00,WSDL version 420,2013-02-08 06:38:00,
2013-02-08 01:43:00,67.5,60.4,29.88,SE,146,2.6,4.0,78,0.00,,,0.00,WSDL version 420,2013-02-08 06:43:00,
2013-02-08 01:48:00,67.5,60.4,29.88,SSE,160,1.8,4.0,78,0.00,,,0.00,WSDL version 420,2013-02-08 06:48:00,
2013-02-08 01:53:00,67.6,60.8,29.88,SSW,203,2.5,4.3,79,0.00,,,0.00,WSDL version 420,2013-02-08 06:53:00,
2013-02-08 01:58:00,67.6,60.9,29.88,SSE,165,1.9,5.4,79,0.00,,,0.00,WSDL version 420,2013-02-08 06:58:00,
2013-02-08 02:03:00,67.5,60.7,29.88,SSE,149,3.7,6.3,79,0.00,,,0.00,WSDL version 420,2013-02-08 07:03:00,
2013-02-08 02:08:00,67.6,61.1,29.88,South,177,2.6,7.2,80,0.00,,,0.00,WSDL version 420,2013-02-08 07:08:00,
2013-02-08 02:13:00,67.6,61.1,29.88,SSE,164,3.9,10.5,79,0.00,,,0.00,WSDL version 420,2013-02-08 07:13:00,
2013-02-08 02:18:00,67.6,61.3,29.88,SW,221,2.9,10.5,80,0.00,,,0.00,WSDL version 420,2013-02-08 07:18:00,
2013-02-08 02:23:00,67.6,61.3,29.88,SSW,194,1.1,6.0,80,0.00,,,0.00,WSDL version 420,2013-02-08 07:23:00,
2013-02-08 02:28:00,67.5,61.1,29.88,South,180,1.0,2.7,80,0.00,,,0.00,WSDL version 420,2013-02-08 07:28:00,
2013-02-08 02:33:00,67.5,61.1,29.88,South,186,2.5,4.7,80,0.00,,,0.00,WSDL version 420,2013-02-08 07:33:00,
2013-02-08 02:38:00,67.5,61.1,29.91,SSW,196,2.1,4.7,80,0.00,,,0.00,WSDL version 420,2013-02-08 07:38:00,
2013-02-08 02:43:00,67.5,61.1,29.91,South,177,2.4,3.6,80,0.00,,,0.00,WSDL version 420,2013-02-08 07:43:00,
2013-02-08 02:48:00,67.5,61.1,29.91,SSW,205,1.2,3.6,80,0.00,,,0.00,WSDL version 420,2013-02-08 07:48:00,
2013-02-08 02:53:00,67.5,61.1,29.88,SSW,203,1.1,2.9,80,0.00,,,0.00,WSDL version 420,2013-02-08 07:53:00,
2013-02-08 02:58:00,67.5,61.1,29.88,South,170,2.1,3.1,80,0.00,,,0.00,WSDL version 420,2013-02-08 07:58:00,
2013-02-08 03:03:00,67.5,61.3,29.88,South,180,1.4,3.4,81,0.00,,,0.00,WSDL version 420,2013-02-08 08:03:00,
2013-02-08 03:08:00,67.5,61.5,29.88,SSE,163,1.6,3.4,81,0.00,,,0.00,WSDL version 420,2013-02-08 08:08:00,
2013-02-08 03:13:00,67.5,61.5,29.88,South,191,1.7,4.0,81,0.00,,,0.00,WSDL version 420,2013-02-08 08:13:00,
2013-02-08 03:18:00,67.4,61.4,29.88,South,191,2.3,4.0,81,0.00,,,0.00,WSDL version 420,2013-02-08 08:18:00,
2013-02-08 03:23:00,67.4,61.4,29.88,South,174,2.4,5.6,81,0.00,,,0.00,WSDL version 420,2013-02-08 08:23:00,
2013-02-08 03:28:00,67.5,61.7,29.88,South,184,2.8,5.6,82,0.00,,,0.00,WSDL version 420,2013-02-08 08:28:00,
2013-02-08 03:33:00,67.5,61.9,29.88,South,186,2.5,6.0,82,0.00,,,0.00,WSDL version 420,2013-02-08 08:33:00,
2013-02-08 03:38:00,67.5,61.9,29.88,SSE,158,2.8,6.7,82,0.00,,,0.00,WSDL version 420,2013-02-08 08:38:00,
2013-02-08 03:43:00,67.5,61.9,29.88,South,174,2.4,6.7,82,0.00,,,0.00,WSDL version 420,2013-02-08 08:43:00,
2013-02-08 03:48:00,67.5,61.9,29.88,SSW,206,2.8,4.7,82,0.00,,,0.00,WSDL version 420,2013-02-08 08:48:00,
2013-02-08 03:53:00,67.6,62.0,29.88,SSE,151,3.5,7.4,82,0.00,,,0.00,WSDL version 420,2013-02-08 08:53:00,
2013-02-08 03:58:00,67.6,62.1,29.88,SSE,161,3.3,7.4,83,0.00,,,0.00,WSDL version 420,2013-02-08 08:58:00,
2013-02-08 04:03:00,67.6,62.4,29.88,SSE,158,3.8,8.7,83,0.00,,,0.00,WSDL version 420,2013-02-08 09:03:00,
2013-02-08 04:08:00,67.8,62.6,29.88,South,180,2.9,8.7,83,0.00,,,0.00,WSDL version 420,2013-02-08 09:08:00,
2013-02-08 04:13:00,67.8,62.6,29.88,South,171,2.8,4.3,83,0.00,,,0.00,WSDL version 420,2013-02-08 09:13:00,
2013-02-08 04:18:00,67.8,62.6,29.88,SSE,161,2.3,6.0,83,0.00,,,0.00,WSDL version 420,2013-02-08 09:18:00,
2013-02-08 04:23:00,67.8,62.6,29.88,SSW,195,2.2,6.0,83,0.00,,,0.00,WSDL version 420,2013-02-08 09:23:00,
2013-02-08 04:28:00,67.8,62.7,29.88,South,176,2.8,5.6,84,0.00,,,0.00,WSDL version 420,2013-02-08 09:28:00,
2013-02-08 04:33:00,67.9,63.0,29.88,South,173,3.7,6.9,84,0.00,,,0.00,WSDL version 420,2013-02-08 09:33:00,
2013-02-08 04:38:00,68.0,63.1,29.88,South,173,3.7,6.9,84,0.00,,,0.00,WSDL version 420,2013-02-08 09:38:00,
2013-02-08 04:43:00,68.0,63.1,29.88,South,176,3.0,7.4,84,0.00,,,0.00,WSDL version 420,2013-02-08 09:43:00,
2013-02-08 04:48:00,68.2,63.6,29.88,South,180,2.0,7.4,85,0.00,,,0.00,WSDL version 420,2013-02-08 09:48:00,
2013-02-08 04:53:00,68.2,63.7,29.88,South,180,3.7,7.8,86,0.00,,,0.00,WSDL version 420,2013-02-08 09:53:00,
2013-02-08 04:58:00,68.2,63.7,29.88,South,180,3.9,7.8,86,0.00,,,0.00,WSDL version 420,2013-02-08 09:58:00,
2013-02-08 05:03:00,68.4,63.9,29.88,SSE,158,4.7,6.0,86,0.00,,,0.00,WSDL version 420,2013-02-08 10:03:00,
2013-02-08 05:08:00,68.4,63.9,29.88,SSW,199,2.2,6.0,86,0.00,,,0.00,WSDL version 420,2013-02-08 10:08:00,
2013-02-08 05:13:00,68.3,63.8,29.88,SSW,194,2.7,5.6,86,0.00,,,0.00,WSDL version 420,2013-02-08 10:13:00,
2013-02-08 05:18:00,68.2,63.7,29.88,South,190,1.0,3.8,86,0.00,,,0.00,WSDL version 420,2013-02-08 10:18:00,
2013-02-08 05:23:00,68.2,63.6,29.88,South,189,2.4,5.6,86,0.00,,,0.00,WSDL version 420,2013-02-08 10:23:00,
2013-02-08 05:28:00,68.1,63.6,29.88,South,173,2.6,5.6,86,0.00,,,0.00,WSDL version 420,2013-02-08 10:28:00,
2013-02-08 05:33:00,68.0,63.5,29.88,South,176,2.5,4.7,86,0.00,,,0.00,WSDL version 420,2013-02-08 10:33:00,
2013-02-08 05:38:00,68.0,63.5,29.85,South,185,2.6,4.0,86,0.00,,,0.00,WSDL version 420,2013-02-08 10:38:00,
2013-02-08 05:43:00,67.9,63.7,29.85,South,183,1.9,4.0,87,0.00,,,0.00,WSDL version 420,2013-02-08 10:43:00,
2013-02-08 05:48:00,67.8,63.7,29.85,South,180,2.5,4.0,87,0.00,,,0.00,WSDL version 420,2013-02-08 10:48:00,
2013-02-08 05:53:00,67.8,63.7,29.88,SSW,210,2.6,3.6,87,0.00,,,0.00,WSDL version 420,2013-02-08 10:53:00,
2013-02-08 05:58:00,67.8,63.8,29.88,South,177,3.2,6.0,88,0.00,,,0.00,WSDL version 420,2013-02-08 10:58:00,
2013-02-08 06:03:00,67.8,64.1,29.88,South,186,2.4,6.0,88,0.00,,,0.00,WSDL version 420,2013-02-08 11:03:00,
2013-02-08 06:08:00,67.8,64.1,29.88,South,180,1.9,3.8,88,0.00,,,0.00,WSDL version 420,2013-02-08 11:08:00,
2013-02-08 06:13:00,67.7,63.9,29.88,SSE,150,2.8,5.4,88,0.00,,,0.00,WSDL version 420,2013-02-08 11:13:00,
2013-02-08 06:18:00,67.7,63.9,29.88,South,174,2.8,6.5,88,0.00,,,0.00,WSDL version 420,2013-02-08 11:18:00,
2013-02-08 06:23:00,67.6,63.9,29.88,SSW,195,2.7,6.5,88,0.00,,,0.00,WSDL version 420,2013-02-08 11:23:00,
2013-02-08 06:28:00,67.6,63.9,29.88,South,176,2.3,6.0,88,0.00,,,0.00,WSDL version 420,2013-02-08 11:28:00,
2013-02-08 06:33:00,67.6,64.1,29.88,South,174,2.7,7.2,89,0.00,,,0.00,WSDL version 420,2013-02-08 11:33:00,
2013-02-08 06:38:00,67.6,64.2,29.88,South,170,3.0,7.2,89,0.00,,,0.00,WSDL version 420,2013-02-08 11:38:00,
2013-02-08 06:43:00,67.6,64.2,29.88,SSE,154,2.1,4.9,89,0.00,,,0.00,WSDL version 420,2013-02-08 11:43:00,
2013-02-08 06:48:00,67.5,64.1,29.88,SSW,212,2.3,3.4,89,0.00,,,0.00,WSDL version 420,2013-02-08 11:48:00,
2013-02-08 06:53:00,67.5,64.1,29.91,South,174,2.5,3.4,89,0.00,,,0.00,WSDL version 420,2013-02-08 11:53:00,
2013-02-08 06:58:00,67.5,64.1,29.91,SSE,158,1.3,6.0,89,0.00,,,0.00,WSDL version 420,2013-02-08 11:58:00,
2013-02-08 07:03:00,67.5,64.1,29.91,South,183,1.6,6.0,89,0.00,,,0.00,WSDL version 420,2013-02-08 12:03:00,
2013-02-08 07:08:00,67.3,63.9,29.91,South,191,2.3,4.7,89,0.00,,,0.00,WSDL version 420,2013-02-08 12:08:00,
2013-02-08 07:13:00,67.3,64.3,29.91,SSW,208,2.6,4.7,90,0.00,,,0.00,WSDL version 420,2013-02-08 12:13:00,
2013-02-08 07:18:00,67.4,64.3,29.91,SSW,199,3.2,6.5,90,0.00,,,0.00,WSDL version 420,2013-02-08 12:18:00,
2013-02-08 07:23:00,67.4,64.4,29.91,SSW,196,1.6,6.5,90,0.00,,,0.00,WSDL version 420,2013-02-08 12:23:00,
2013-02-08 07:28:00,67.4,64.4,29.91,South,169,2.3,4.0,90,0.00,,,0.00,WSDL version 420,2013-02-08 12:28:00,
2013-02-08 07:33:00,67.5,64.4,29.91,South,177,2.4,4.0,90,0.00,,,0.00,WSDL version 420,2013-02-08 12:33:00,
2013-02-08 07:38:00,67.6,64.6,29.94,South,188,2.5,4.3,90,0.00,,,0.00,WSDL version 420,2013-02-08 12:38:00,
2013-02-08 07:43:00,67.8,65.0,29.94,West,270,1.0,4.5,91,0.00,,,0.00,WSDL version 420,2013-02-08 12:43:00,
2013-02-08 07:48:00,68.1,65.0,29.94,SSE,161,2.3,4.5,90,0.00,,,0.00,WSDL version 420,2013-02-08 12:48:00,
2013-02-08 07:53:00,68.2,65.2,29.91,South,169,2.1,4.7,90,0.00,,,0.00,WSDL version 420,2013-02-08 12:53:00,
2013-02-08 07:58:00,68.5,65.4,29.91,SSW,193,0.3,4.9,90,0.00,,,0.00,WSDL version 420,2013-02-08 12:58:00,
2013-02-08 08:03:00,68.6,65.6,29.91,South,188,1.8,4.9,90,0.00,,,0.00,WSDL version 420,2013-02-08 13:03:00,
2013-02-08 08:08:00,69.1,66.0,29.91,SW,222,0.0,3.1,90,0.00,,,0.00,WSDL version 420,2013-02-08 13:08:00,
2013-02-08 08:13:00,69.4,66.4,29.91,WNW,302,1.7,2.9,90,0.00,,,0.00,WSDL version 420,2013-02-08 13:13:00,
2013-02-08 08:18:00,69.6,66.6,29.91,SSW,212,0.7,2.9,90,0.00,,,0.00,WSDL version 420,2013-02-08 13:18:00,
2013-02-08 08:28:00,70.2,66.7,29.91,West,261,0.0,2.0,89,0.00,,,0.00,WSDL version 420,2013-02-08 13:28:00,
2013-02-08 08:33:00,70.5,67.1,29.91,SSW,206,0.0,1.1,89,0.00,,,0.00,WSDL version 420,2013-02-08 13:33:00,
2013-02-08 08:38:00,70.7,66.9,29.94,WNW,283,0.9,3.1,88,0.00,,,0.00,WSDL version 420,2013-02-08 13:38:00,
2013-02-08 08:43:00,70.7,66.7,29.94,South,180,0.0,3.1,87,0.00,,,0.00,WSDL version 420,2013-02-08 13:43:00,
2013-02-08 08:48:00,70.7,66.5,29.94,NW,309,0.0,1.3,86,0.00,,,0.00,WSDL version 420,2013-02-08 13:48:00,
2013-02-08 08:53:00,70.5,66.0,29.94,WNW,300,0.0,1.3,86,0.00,,,0.00,WSDL version 420,2013-02-08 13:53:00,
2013-02-08 08:58:00,70.5,66.0,29.94,WSW,245,0.7,2.0,86,0.00,,,0.00,WSDL version 420,2013-02-08 13:58:00,
2013-02-08 09:08:00,70.4,65.9,29.97,SSW,205,0.5,2.7,86,0.00,,,0.00,WSDL version 420,2013-02-08 14:08:00,
2013-02-08 09:13:00,70.9,66.5,29.97,WNW,283,0.0,2.7,87,0.00,,,0.00,WSDL version 420,2013-02-08 14:13:00,
2013-02-08 09:18:00,71.6,67.2,29.97,WSW,251,0.0,1.3,86,0.00,,,0.00,WSDL version 420,2013-02-08 14:18:00,
2013-02-08 09:23:00,72.1,67.6,29.97,NW,326,1.6,3.6,86,0.00,,,0.00,WSDL version 420,2013-02-08 14:23:00,
2013-02-08 09:28:00,72.5,67.4,29.97,South,190,0.0,3.6,83,0.00,,,0.00,WSDL version 420,2013-02-08 14:28:00,
2013-02-08 09:38:00,72.5,66.4,29.97,SSW,199,0.0,2.5,81,0.00,,,0.00,WSDL version 420,2013-02-08 14:38:00,
2013-02-08 09:43:00,72.6,66.3,29.97,SSW,195,1.3,1.6,80,0.00,,,0.00,WSDL version 420,2013-02-08 14:43:00,
2013-02-08 09:48:00,72.7,66.2,29.97,WNW,289,0.2,2.2,80,0.00,,,0.00,WSDL version 420,2013-02-08 14:48:00,
2013-02-08 09:53:00,72.9,66.2,29.97,West,264,1.5,3.6,79,0.00,,,0.00,WSDL version 420,2013-02-08 14:53:00,
2013-02-08 09:58:00,72.8,65.9,29.97,North,360,0.4,3.6,79,0.00,,,0.00,WSDL version 420,2013-02-08 14:58:00,
2013-02-08 10:03:00,72.8,65.8,29.97,West,274,0.6,2.5,79,0.00,,,0.00,WSDL version 420,2013-02-08 15:03:00,
2013-02-08 10:08:00,72.9,65.7,30.00,SSE,163,1.5,2.9,78,0.00,,,0.00,WSDL version 420,2013-02-08 15:08:00,
2013-02-08 10:13:00,73.2,66.0,30.00,West,280,0.0,2.9,78,0.00,,,0.00,WSDL version 420,2013-02-08 15:13:00,
2013-02-08 10:23:00,74.1,66.4,29.97,SW,230,0.6,3.6,77,0.00,,,0.00,WSDL version 420,2013-02-08 15:23:00,
2013-02-08 10:28:00,74.5,66.7,29.97,NNE,26,0.0,2.5,76,0.00,,,0.00,WSDL version 420,2013-02-08 15:28:00,
2013-02-08 10:33:00,74.9,66.8,29.97,NNE,18,0.0,1.6,75,0.00,,,0.00,WSDL version 420,2013-02-08 15:33:00,
2013-02-08 10:38:00,75.5,66.7,29.97,SSW,196,1.5,2.5,74,0.00,,,0.00,WSDL version 420,2013-02-08 15:38:00,
2013-02-08 10:43:00,75.9,66.8,29.97,ESE,106,2.1,5.4,73,0.00,,,0.00,WSDL version 420,2013-02-08 15:43:00,
2013-02-08 10:48:00,75.9,65.8,29.97,NW,304,0.6,5.4,71,0.00,,,0.00,WSDL version 420,2013-02-08 15:48:00,
2013-02-08 10:53:00,75.9,65.5,29.97,SW,231,1.3,3.8,70,0.00,,,0.00,WSDL version 420,2013-02-08 15:53:00,
2013-02-08 11:03:00,76.1,65.3,29.97,WNW,284,1.3,2.7,69,0.00,,,0.00,WSDL version 420,2013-02-08 16:03:00,
2013-02-08 11:08:00,75.6,64.5,29.97,NW,313,1.1,2.7,68,0.00,,,0.00,WSDL version 420,2013-02-08 16:08:00,
2013-02-08 11:18:00,75.7,64.9,29.97,North,357,0.0,2.7,69,0.00,,,0.00,WSDL version 420,2013-02-08 16:18:00,
2013-02-08 11:23:00,76.0,65.1,29.97,NW,315,0.9,2.5,69,0.00,,,0.00,WSDL version 420,2013-02-08 16:23:00,
2013-02-08 11:28:00,76.1,64.7,29.97,NNW,347,1.5,2.9,67,0.00,,,0.00,WSDL version 420,2013-02-08 16:28:00,
2013-02-08 11:33:00,76.1,64.4,29.97,NW,312,0.8,2.9,67,0.00,,,0.00,WSDL version 420,2013-02-08 16:33:00,
2013-02-08 11:38:00,76.0,64.3,29.97,NW,311,0.6,3.4,67,0.00,,,0.00,WSDL version 420,2013-02-08 16:38:00,
2013-02-08 11:43:00,76.2,64.6,29.97,North,3,1.3,3.4,68,0.00,,,0.00,WSDL version 420,2013-02-08 16:43:00,
2013-02-08 11:48:00,76.0,63.8,29.97,West,273,0.9,2.9,66,0.00,,,0.00,WSDL version 420,2013-02-08 16:48:00,
2013-02-08 11:58:00,76.3,64.5,29.97,WNW,301,2.4,3.1,67,0.00,,,0.00,WSDL version 420,2013-02-08 16:58:00,
2013-02-08 12:08:00,77.0,64.5,29.97,West,267,0.8,3.6,65,0.00,,,0.00,WSDL version 420,2013-02-08 17:08:00,
2013-02-08 12:13:00,77.1,64.5,29.97,SW,231,1.6,3.6,65,0.00,,,0.00,WSDL version 420,2013-02-08 17:13:00,
2013-02-08 12:18:00,77.4,64.3,29.97,North,6,1.4,5.4,64,0.00,,,0.00,WSDL version 420,2013-02-08 17:18:00,
2013-02-08 12:28:00,78.0,64.2,29.97,SW,218,2.2,4.3,62,0.00,,,0.00,WSDL version 420,2013-02-08 17:28:00,
2013-02-08 12:38:00,78.4,63.6,29.94,ENE,60,1.8,5.8,61,0.00,,,0.00,WSDL version 420,2013-02-08 17:38:00,
2013-02-08 12:43:00,79.0,64.2,29.94,South,177,2.9,6.0,61,0.00,,,0.00,WSDL version 420,2013-02-08 17:43:00,
2013-02-08 12:48:00,79.3,63.7,29.94,North,6,2.1,6.0,59,0.00,,,0.00,WSDL version 420,2013-02-08 17:48:00,
2013-02-08 12:53:00,79.1,62.8,29.94,North,8,2.9,3.4,57,0.00,,,0.00,WSDL version 420,2013-02-08 17:53:00,
2013-02-08 12:58:00,79.5,63.1,29.94,NNE,15,2.4,3.6,56,0.00,,,0.00,WSDL version 420,2013-02-08 17:58:00,
2013-02-08 13:03:00,79.9,62.8,29.94,North,357,2.9,6.5,56,0.00,,,0.00,WSDL version 420,2013-02-08 18:03:00,
2013-02-08 13:13:00,81.2,63.9,29.94,NW,305,2.0,10.1,56,0.00,,,0.00,WSDL version 420,2013-02-08 18:13:00,
2013-02-08 13:23:00,81.8,62.5,29.94,WSW,243,1.8,3.4,52,0.00,,,0.00,WSDL version 420,2013-02-08 18:23:00,
2013-02-08 13:28:00,81.7,62.2,29.94,SW,214,2.2,3.6,52,0.00,,,0.00,WSDL version 420,2013-02-08 18:28:00,
2013-02-08 13:38:00,81.9,61.9,29.94,North,8,1.8,6.5,51,0.00,,,0.00,WSDL version 420,2013-02-08 18:38:00,
2013-02-08 13:43:00,82.2,62.3,29.94,SW,231,1.9,6.5,51,0.00,,,0.00,WSDL version 420,2013-02-08 18:43:00,
2013-02-08 13:48:00,81.9,61.0,29.94,NNW,330,2.1,3.6,49,0.00,,,0.00,WSDL version 420,2013-02-08 18:48:00,
2013-02-08 13:58:00,81.8,60.8,29.94,WNW,296,1.3,2.9,49,0.00,,,0.00,WSDL version 420,2013-02-08 18:58:00,
2013-02-08 14:03:00,82.0,61.0,29.94,South,177,2.8,5.8,48,0.00,,,0.00,WSDL version 420,2013-02-08 19:03:00,
2013-02-08 14:08:00,82.0,60.7,29.94,SW,215,1.5,5.8,49,0.00,,,0.00,WSDL version 420,2013-02-08 19:08:00,
2013-02-08 14:18:00,81.8,59.2,29.94,ESE,104,2.4,7.4,45,0.00,,,0.00,WSDL version 420,2013-02-08 19:18:00,
2013-02-08 14:23:00,81.5,57.7,29.94,West,260,3.0,4.0,44,0.00,,,0.00,WSDL version 420,2013-02-08 19:23:00,
2013-02-08 14:28:00,81.2,57.6,29.94,NW,318,2.1,7.8,45,0.00,,,0.00,WSDL version 420,2013-02-08 19:28:00,
2013-02-08 14:33:00,81.5,58.0,29.94,West,276,2.0,7.8,45,0.00,,,0.00,WSDL version 420,2013-02-08 19:33:00,
2013-02-08 14:38:00,81.5,58.3,29.94,WNW,293,1.5,3.4,46,0.00,,,0.00,WSDL version 420,2013-02-08 19:38:00,
2013-02-08 14:48:00,82.0,58.5,29.94,West,273,1.6,4.7,45,0.00,,,0.00,WSDL version 420,2013-02-08 19:48:00,
2013-02-08 14:53:00,82.0,56.8,29.94,WNW,286,3.0,6.5,42,0.00,,,0.00,WSDL version 420,2013-02-08 19:53:00,
2013-02-08 14:58:00,81.7,56.4,29.94,NW,315,1.6,6.5,41,0.00,,,0.00,WSDL version 420,2013-02-08 19:58:00,
2013-02-08 15:03:00,81.6,55.2,29.94,NNE,13,3.7,6.3,40,0.00,,,0.00,WSDL version 420,2013-02-08 20:03:00,
2013-02-08 15:08:00,81.5,54.9,29.91,NW,318,2.2,6.3,40,0.00,,,0.00,WSDL version 420,2013-02-08 20:08:00,
2013-02-08 15:13:00,81.5,55.2,29.91,NW,312,2.1,4.3,40,0.00,,,0.00,WSDL version 420,2013-02-08 20:13:00,
2013-02-08 15:18:00,81.8,55.8,29.91,North,360,2.6,4.9,41,0.00,,,0.00,WSDL version 420,2013-02-08 20:18:00,
2013-02-08 15:28:00,81.9,55.2,29.91,NNW,335,3.1,6.3,40,0.00,,,0.00,WSDL version 420,2013-02-08 20:28:00,
2013-02-08 15:33:00,82.0,55.3,29.91,NNW,341,0.8,6.3,40,0.00,,,0.00,WSDL version 420,2013-02-08 20:33:00,
2013-02-08 15:38:00,82.0,55.4,29.88,West,260,2.2,4.3,40,0.00,,,0.00,WSDL version 420,2013-02-08 20:38:00,
2013-02-08 15:43:00,82.0,55.2,29.88,NW,323,2.0,4.3,39,0.00,,,0.00,WSDL version 420,2013-02-08 20:43:00,
2013-02-08 15:48:00,82.2,55.3,29.88,NNW,338,1.6,2.7,39,0.00,,,0.00,WSDL version 420,2013-02-08 20:48:00,
2013-02-08 15:53:00,82.2,54.8,29.91,WNW,284,2.3,3.8,39,0.00,,,0.00,WSDL version 420,2013-02-08 20:53:00,
2013-02-08 16:03:00,82.0,54.3,29.91,West,278,1.4,3.4,39,0.00,,,0.00,WSDL version 420,2013-02-08 21:03:00,
2013-02-08 16:08:00,82.0,53.5,29.88,SE,146,1.5,4.7,37,0.00,,,0.00,WSDL version 420,2013-02-08 21:08:00,
2013-02-08 16:13:00,81.9,53.8,29.88,NW,323,2.0,4.7,38,0.00,,,0.00,WSDL version 420,2013-02-08 21:13:00,
2013-02-08 16:18:00,81.9,53.8,29.88,West,270,1.6,3.6,38,0.00,,,0.00,WSDL version 420,2013-02-08 21:18:00,
2013-02-08 16:23:00,81.8,54.3,29.88,NW,304,1.5,3.4,39,0.00,,,0.00,WSDL version 420,2013-02-08 21:23:00,
2013-02-08 16:28:00,81.6,53.9,29.88,WSW,253,1.7,3.8,38,0.00,,,0.00,WSDL version 420,2013-02-08 21:28:00,
2013-02-08 16:33:00,81.2,53.2,29.88,WNW,289,1.3,3.8,38,0.00,,,0.00,WSDL version 420,2013-02-08 21:33:00,
2013-02-08 16:38:00,80.8,52.5,29.88,NNW,330,0.6,2.5,37,0.00,,,0.00,WSDL version 420,2013-02-08 21:38:00,
2013-02-08 16:43:00,80.5,53.0,29.88,NNW,342,1.2,2.0,39,0.00,,,0.00,WSDL version 420,2013-02-08 21:43:00,
2013-02-08 16:48:00,80.2,53.0,29.88,WSW,240,0.0,2.0,39,0.00,,,0.00,WSDL version 420,2013-02-08 21:48:00,
2013-02-08 16:58:00,79.8,52.1,29.88,NW,323,1.3,2.0,38,0.00,,,0.00,WSDL version 420,2013-02-08 21:58:00,
2013-02-08 17:03:00,79.5,51.9,29.88,WSW,248,0.8,2.0,38,0.00,,,0.00,WSDL version 420,2013-02-08 22:03:00,
2013-02-08 17:08:00,79.3,52.2,29.91,West,270,1.0,3.1,39,0.00,,,0.00,WSDL version 420,2013-02-08 22:08:00,
2013-02-08 17:13:00,79.0,51.9,29.91,NW,305,1.2,4.0,39,0.00,,,0.00,WSDL version 420,2013-02-08 22:13:00,
2013-02-08 17:18:00,78.7,52.0,29.91,WNW,296,0.0,4.0,40,0.00,,,0.00,WSDL version 420,2013-02-08 22:18:00,
2013-02-08 17:23:00,78.5,52.2,29.91,West,259,0.6,1.3,40,0.00,,,0.00,WSDL version 420,2013-02-08 22:23:00,
2013-02-08 17:28:00,78.2,51.6,29.91,WSW,248,0.0,1.6,40,0.00,,,0.00,WSDL version 420,2013-02-08 22:28:00,
2013-02-08 17:38:00,77.5,51.3,29.91,WSW,248,0.0,2.5,40,0.00,,,0.00,WSDL version 420,2013-02-08 22:38:00,
2013-02-08 17:43:00,77.1,51.0,29.91,WSW,248,0.0,2.0,40,0.00,,,0.00,WSDL version 420,2013-02-08 22:43:00,
2013-02-08 17:48:00,76.5,51.1,29.91,NNW,344,0.0,0.0,41,0.00,,,0.00,WSDL version 420,2013-02-08 22:48:00,
2013-02-08 17:58:00,75.6,50.2,29.91,North,360,0.0,0.0,41,0.00,,,0.00,WSDL version 420,2013-02-08 22:58:00,
2013-02-08 18:03:00,75.1,50.5,29.91,North,360,0.0,0.0,42,0.00,,,0.00,WSDL version 420,2013-02-08 23:03:00,
2013-02-08 18:13:00,74.1,50.0,29.94,North,360,0.0,0.0,43,0.00,,,0.00,WSDL version 420,2013-02-08 23:13:00,
2013-02-08 18:18:00,73.6,50.2,29.94,North,360,0.0,0.0,44,0.00,,,0.00,WSDL version 420,2013-02-08 23:18:00,
2013-02-08 18:23:00,73.1,50.7,29.91,North,6,0.0,0.0,46,0.00,,,0.00,WSDL version 420,2013-02-08 23:23:00,
2013-02-08 18:28:00,72.7,51.6,29.91,NE,49,1.3,2.0,49,0.00,,,0.00,WSDL version 420,2013-02-08 23:28:00,
2013-02-08 18:33:00,72.9,53.7,29.91,NE,45,1.2,2.0,52,0.00,,,0.00,WSDL version 420,2013-02-08 23:33:00,
2013-02-08 18:38:00,72.7,54.2,29.94,NE,45,0.0,1.6,53,0.00,,,0.00,WSDL version 420,2013-02-08 23:38:00,
2013-02-08 18:43:00,72.4,54.6,29.94,NE,45,0.0,1.1,54,0.00,,,0.00,WSDL version 420,2013-02-08 23:43:00,
2013-02-08 18:48:00,72.0,55.3,29.94,NE,45,0.0,0.0,56,0.00,,,0.00,WSDL version 420,2013-02-08 23:48:00,
2013-02-08 18:53:00,71.6,55.6,29.94,NE,45,0.0,0.0,58,0.00,,,0.00,WSDL version 420,2013-02-08 23:53:00,
2013-02-08 19:03:00,70.9,56.4,29.94,NE,45,0.0,0.0,61,0.00,,,0.00,WSDL version 420,2013-02-09 00:03:00,
2013-02-08 19:08:00,70.4,56.4,29.94,NE,45,0.0,0.0,61,0.00,,,0.00,WSDL version 420,2013-02-09 00:08:00,
2013-02-08 19:18:00,69.8,56.7,29.94,NE,45,0.0,0.0,64,0.00,,,0.00,WSDL version 420,2013-02-09 00:18:00,
2013-02-08 19:23:00,69.6,56.9,29.94,NE,45,0.0,0.0,64,0.00,,,0.00,WSDL version 420,2013-02-09 00:23:00,
2013-02-08 19:28:00,69.3,57.3,29.94,NE,45,0.0,0.0,66,0.00,,,0.00,WSDL version 420,2013-02-09 00:28:00,
2013-02-08 19:33:00,69.0,57.5,29.94,NE,45,0.0,0.0,67,0.00,,,0.00,WSDL version 420,2013-02-09 00:33:00,
2013-02-08 19:43:00,68.6,57.8,29.91,NE,45,0.0,0.0,69,0.00,,,0.00,WSDL version 420,2013-02-09 00:43:00,
2013-02-08 19:48:00,68.3,57.7,29.91,NE,45,0.0,0.0,69,0.00,,,0.00,WSDL version 420,2013-02-09 00:48:00,
2013-02-08 19:53:00,68.0,57.9,29.91,NE,45,0.0,0.0,70,0.00,,,0.00,WSDL version 420,2013-02-09 00:53:00,
2013-02-08 19:58:00,67.9,58.0,29.91,NE,45,0.0,0.0,71,0.00,,,0.00,WSDL version 420,2013-02-09 00:58:00,
2013-02-08 20:03:00,67.6,58.1,29.91,NE,45,0.0,0.0,72,0.00,,,0.00,WSDL version 420,2013-02-09 01:03:00,
2013-02-08 20:08:00,67.5,58.2,29.94,NE,45,0.0,0.0,72,0.00,,,0.00,WSDL version 420,2013-02-09 01:08:00,
2013-02-08 20:13:00,67.3,58.4,29.94,NE,45,0.0,0.0,73,0.00,,,0.00,WSDL version 420,2013-02-09 01:13:00,
2013-02-08 20:18:00,67.1,58.2,29.94,NE,45,0.0,0.0,73,0.00,,,0.00,WSDL version 420,2013-02-09 01:18:00,
2013-02-08 20:23:00,67.0,58.1,29.94,NE,45,0.0,0.0,73,0.00,,,0.00,WSDL version 420,2013-02-09 01:23:00,
2013-02-08 20:28:00,66.8,58.2,29.94,NE,45,0.0,0.0,74,0.00,,,0.00,WSDL version 420,2013-02-09 01:28:00,
2013-02-08 20:33:00,66.7,58.2,29.94,NE,45,0.0,0.0,74,0.00,,,0.00,WSDL version 420,2013-02-09 01:33:00,
2013-02-08 20:38:00,66.6,58.2,29.94,NE,45,0.0,0.0,75,0.00,,,0.00,WSDL version 420,2013-02-09 01:38:00,
2013-02-08 20:43:00,66.4,58.2,29.94,NE,45,0.0,0.0,75,0.00,,,0.00,WSDL version 420,2013-02-09 01:43:00,
2013-02-08 20:48:00,66.3,58.1,29.94,NE,45,0.0,0.0,75,0.00,,,0.00,WSDL version 420,2013-02-09 01:48:00,
2013-02-08 20:53:00,66.2,58.3,29.94,NE,45,0.0,0.0,76,0.00,,,0.00,WSDL version 420,2013-02-09 01:53:00,
2013-02-08 21:03:00,66.0,58.4,29.94,NE,45,0.0,0.0,77,0.00,,,0.00,WSDL version 420,2013-02-09 02:03:00,
2013-02-08 21:08:00,65.8,58.4,29.97,NE,45,0.0,0.0,77,0.00,,,0.00,WSDL version 420,2013-02-09 02:08:00,
2013-02-08 21:13:00,65.7,58.7,29.97,NE,45,0.0,0.0,78,0.00,,,0.00,WSDL version 420,2013-02-09 02:13:00,
2013-02-08 21:18:00,65.5,58.5,29.97,NE,45,0.0,0.0,78,0.00,,,0.00,WSDL version 420,2013-02-09 02:18:00,
2013-02-08 21:23:00,65.3,58.3,29.97,North,360,0.0,0.0,78,0.00,,,0.00,WSDL version 420,2013-02-09 02:23:00,
2013-02-08 21:28:00,65.1,58.1,29.97,North,360,0.0,0.0,78,0.00,,,0.00,WSDL version 420,2013-02-09 02:28:00,
2013-02-08 21:33:00,65.1,58.5,29.97,North,360,0.0,0.0,79,0.00,,,0.00,WSDL version 420,2013-02-09 02:33:00,
2013-02-08 21:38:00,65.0,58.3,29.97,North,360,0.0,0.0,79,0.00,,,0.00,WSDL version 420,2013-02-09 02:38:00,
2013-02-08 21:43:00,64.9,58.2,29.97,North,360,0.0,0.0,79,0.00,,,0.00,WSDL version 420,2013-02-09 02:43:00,
2013-02-08 21:48:00,64.9,58.3,29.97,North,360,0.0,0.0,79,0.00,,,0.00,WSDL version 420,2013-02-09 02:48:00,
2013-02-08 21:53:00,64.8,58.1,29.97,North,360,0.0,0.0,79,0.00,,,0.00,WSDL version 420,2013-02-09 02:53:00,
2013-02-08 21:58:00,64.6,58.1,29.97,North,360,0.0,0.0,80,0.00,,,0.00,WSDL version 420,2013-02-09 02:58:00,
2013-02-08 22:03:00,64.6,58.3,29.97,North,360,0.0,0.0,80,0.00,,,0.00,WSDL version 420,2013-02-09 03:03:00,
2013-02-08 22:08:00,64.4,58.1,29.97,North,360,0.0,0.0,80,0.00,,,0.00,WSDL version 420,2013-02-09 03:08:00,
2013-02-08 22:13:00,64.3,58.0,29.97,North,360,0.0,0.0,80,0.00,,,0.00,WSDL version 420,2013-02-09 03:13:00,
2013-02-08 22:18:00,64.2,57.9,29.97,North,360,0.0,0.0,80,0.00,,,0.00,WSDL version 420,2013-02-09 03:18:00,
2013-02-08 22:23:00,63.9,57.6,29.97,North,360,0.0,0.0,80,0.00,,,0.00,WSDL version 420,2013-02-09 03:23:00,
2013-02-08 22:33:00,63.5,57.3,29.97,NW,315,0.0,0.0,81,0.00,,,0.00,WSDL version 420,2013-02-09 03:33:00,
2013-02-08 22:38:00,63.5,57.6,29.97,NW,315,0.0,0.0,81,0.00,,,0.00,WSDL version 420,2013-02-09 03:38:00,
2013-02-08 22:43:00,63.5,57.6,29.97,NW,315,0.0,0.0,81,0.00,,,0.00,WSDL version 420,2013-02-09 03:43:00,
2013-02-08 22:48:00,63.5,57.6,29.97,NW,315,0.0,0.0,81,0.00,,,0.00,WSDL version 420,2013-02-09 03:48:00,
2013-02-08 22:58:00,63.5,57.6,30.00,WSW,248,0.0,0.0,81,0.00,,,0.00,WSDL version 420,2013-02-09 03:58:00,
2013-02-08 23:03:00,63.4,57.5,30.00,WSW,248,0.0,0.0,81,0.00,,,0.00,WSDL version 420,2013-02-09 04:03:00,
2013-02-08 23:08:00,63.3,57.4,30.00,WSW,248,0.0,0.0,81,0.00,,,0.00,WSDL version 420,2013-02-09 04:08:00,
2013-02-08 23:13:00,63.3,57.4,30.00,WSW,248,0.0,0.0,81,0.00,,,0.00,WSDL version 420,2013-02-09 04:13:00,
2013-02-08 23:23:00,63.1,57.4,30.00,NE,45,0.0,0.0,82,0.00,,,0.00,WSDL version 420,2013-02-09 04:23:00,
2013-02-08 23:28:00,63.1,57.6,30.00,NE,45,0.0,0.0,82,0.00,,,0.00,WSDL version 420,2013-02-09 04:28:00,
2013-02-08 23:33:00,63.1,57.6,30.00,SSE,151,0.0,0.0,82,0.00,,,0.00,WSDL version 420,2013-02-09 04:33:00,
2013-02-08 23:38:00,63.1,57.6,30.00,SE,135,0.0,0.0,82,0.00,,,0.00,WSDL version 420,2013-02-09 04:38:00,
2013-02-08 23:43:00,63.1,57.8,30.00,SE,135,0.0,0.0,82,0.00,,,0.00,WSDL version 420,2013-02-09 04:43:00,
2013-02-08 23:48:00,63.1,57.9,30.00,SE,135,0.0,0.0,83,0.00,,,0.00,WSDL version 420,2013-02-09 04:48:00,
2013-02-08 23:53:00,63.1,57.9,30.00,SE,135,0.0,0.0,83,0.00,,,0.00,WSDL version 420,2013-02-09 04:53:00,
2013-02-08 23:58:00,63.0,57.9,30.00,SE,135,0.0,0.0,83,0.00,,,0.00,WSDL version 420,2013-02-09 04:58:00,